createdAt,value
2018-03-08T00:00:19.731Z,990.96
2018-03-08T00:01:34.155Z,990.97
2018-03-08T00:02:49.046Z,991.01
2018-03-08T00:04:02.876Z,990.92
2018-03-08T00:05:17.187Z,991.04
2018-03-08T00:06:32.080Z,991.07
2018-03-08T00:07:46.480Z,991.02
2018-03-08T00:09:00.893Z,991.09
2018-03-08T00:10:14.463Z,991.07
2018-03-08T00:11:29.150Z,991.09
2018-03-08T00:12:43.790Z,991.12
2018-03-08T00:13:57.896Z,991.13
2018-03-08T00:15:12.827Z,991.09
2018-03-08T00:16:26.710Z,991.08
2018-03-08T00:17:41.145Z,991.1
2018-03-08T00:18:55.773Z,991.05
2018-03-08T00:20:10.188Z,991.09
2018-03-08T00:21:24.588Z,991.09
2018-03-08T00:22:38.731Z,991.12
2018-03-08T00:23:53.141Z,991.13
2018-03-08T00:25:07.997Z,991.1
2018-03-08T00:26:23.216Z,991.16
2018-03-08T00:27:37.631Z,991.13
2018-03-08T00:28:51.776Z,991.14
2018-03-08T00:30:06.475Z,991.15
2018-03-08T00:31:20.876Z,991.14
2018-03-08T00:32:35.826Z,991.14
2018-03-08T00:33:50.784Z,991.14
2018-03-08T00:35:05.476Z,991.17
2018-03-08T00:36:30.537Z,991.15
2018-03-08T00:37:44.652Z,991.14
2018-03-08T00:38:58.826Z,991.2
2018-03-08T00:40:12.953Z,991.21
2018-03-08T00:41:27.008Z,991.18
2018-03-08T00:42:41.799Z,991.22
2018-03-08T00:43:56.963Z,991.19
2018-03-08T00:45:12.176Z,991.24
2018-03-08T00:46:26.559Z,991.23
2018-03-08T00:47:41.488Z,991.27
2018-03-08T00:48:56.192Z,991.3
2018-03-08T00:50:10.872Z,991.3
2018-03-08T00:51:25.289Z,991.31
2018-03-08T00:52:40.556Z,991.3
2018-03-08T00:53:55.685Z,991.33
2018-03-08T00:55:10.348Z,991.29
2018-03-08T00:56:25.004Z,991.32
2018-03-08T00:57:39.751Z,991.32
2018-03-08T00:59:00.371Z,991.34
2018-03-08T01:00:14.993Z,991.29
2018-03-08T01:01:29.356Z,991.4
2018-03-08T01:02:44.106Z,991.42
2018-03-08T01:03:58.484Z,991.42
2018-03-08T01:05:13.473Z,991.44
2018-03-08T01:06:27.864Z,991.45
2018-03-08T01:07:42.327Z,991.5
2018-03-08T01:08:57.232Z,991.5
2018-03-08T01:10:11.963Z,991.52
2018-03-08T01:11:26.018Z,991.49
2018-03-08T01:12:40.681Z,991.58
2018-03-08T01:13:55.357Z,991.53
2018-03-08T01:15:10.015Z,991.54
2018-03-08T01:16:25.166Z,991.62
2018-03-08T01:17:39.945Z,991.62
2018-03-08T01:18:54.881Z,991.61
2018-03-08T01:20:09.929Z,991.6
2018-03-08T01:21:24.793Z,991.54
2018-03-08T01:22:39.076Z,991.62
2018-03-08T01:23:53.565Z,991.57
2018-03-08T01:25:09.111Z,991.62
2018-03-08T01:26:24.012Z,991.6
2018-03-08T01:27:38.666Z,991.64
2018-03-08T01:28:52.789Z,991.67
2018-03-08T01:30:07.444Z,991.65
2018-03-08T01:31:22.112Z,991.66
2018-03-08T01:32:36.329Z,991.67
2018-03-08T01:33:50.866Z,991.69
2018-03-08T01:35:05.510Z,991.68
2018-03-08T01:36:20.186Z,991.65
2018-03-08T01:37:34.295Z,991.62
2018-03-08T01:38:49.476Z,991.72
2018-03-08T01:40:04.984Z,991.78
2018-03-08T01:41:20.391Z,991.88
2018-03-08T01:42:35.139Z,991.87
2018-03-08T01:43:49.490Z,991.92
2018-03-08T01:45:04.163Z,991.94
2018-03-08T01:46:18.647Z,991.9
2018-03-08T01:47:33.054Z,991.89
2018-03-08T01:48:47.907Z,991.9
2018-03-08T01:50:02.081Z,991.86
2018-03-08T01:51:16.988Z,991.82
2018-03-08T01:52:31.944Z,991.85
2018-03-08T01:53:46.437Z,991.82
2018-03-08T01:55:01.611Z,991.78
2018-03-08T01:56:16.661Z,991.8
2018-03-08T01:57:31.104Z,991.76
2018-03-08T01:58:45.631Z,991.82
2018-03-08T02:00:01.224Z,991.77
2018-03-08T02:01:16.016Z,991.81
2018-03-08T02:02:30.394Z,991.8
2018-03-08T02:03:44.856Z,991.78
2018-03-08T02:04:59.849Z,991.8
2018-03-08T02:06:14.808Z,991.8
2018-03-08T02:07:29.795Z,991.81
2018-03-08T02:08:44.813Z,991.79
2018-03-08T02:09:59.717Z,991.82
2018-03-08T02:11:14.411Z,991.85
2018-03-08T02:12:28.532Z,991.85
2018-03-08T02:13:57.263Z,991.87
2018-03-08T02:15:12.208Z,991.9
2018-03-08T02:16:26.605Z,991.96
2018-03-08T02:17:40.806Z,991.94
2018-03-08T02:18:54.937Z,991.94
2018-03-08T02:20:09.391Z,991.97
2018-03-08T02:21:24.332Z,991.97
2018-03-08T02:22:38.708Z,992
2018-03-08T02:23:52.579Z,991.97
2018-03-08T02:25:07.237Z,991.98
2018-03-08T02:26:21.636Z,992.03
2018-03-08T02:27:36.593Z,992.04
2018-03-08T02:28:50.450Z,992.04
2018-03-08T02:30:05.412Z,992.04
2018-03-08T02:31:19.301Z,992.01
2018-03-08T02:32:33.756Z,992.09
2018-03-08T02:33:48.428Z,992.09
2018-03-08T02:35:03.614Z,992.08
2018-03-08T02:36:17.799Z,992.13
2018-03-08T02:37:32.469Z,992.12
2018-03-08T02:38:46.941Z,992.14
2018-03-08T02:40:01.624Z,992.14
2018-03-08T02:41:15.239Z,992.12
2018-03-08T02:42:29.378Z,992.16
2018-03-08T02:43:44.022Z,992.2
2018-03-08T02:44:58.905Z,992.25
2018-03-08T02:46:13.398Z,992.23
2018-03-08T02:47:27.502Z,992.3
2018-03-08T02:48:42.210Z,992.33
2018-03-08T02:49:57.385Z,992.23
2018-03-08T02:51:11.768Z,992.32
2018-03-08T02:52:27.007Z,992.32
2018-03-08T02:53:41.981Z,992.39
2018-03-08T02:54:56.653Z,992.36
2018-03-08T02:56:10.974Z,992.37
2018-03-08T02:57:25.679Z,992.37
2018-03-08T02:58:40.401Z,992.37
2018-03-08T02:59:55.079Z,992.41
2018-03-08T03:01:10.040Z,992.39
2018-03-08T03:02:24.572Z,992.36
2018-03-08T03:03:38.742Z,992.43
2018-03-08T03:04:54.230Z,992.43
2018-03-08T03:06:09.426Z,992.46
2018-03-08T03:07:24.352Z,992.47
2018-03-08T03:08:38.999Z,992.46
2018-03-08T03:09:53.433Z,992.48
2018-03-08T03:11:08.716Z,992.52
2018-03-08T03:12:23.384Z,992.51
2018-03-08T03:13:38.280Z,992.47
2018-03-08T03:14:52.690Z,992.45
2018-03-08T03:16:07.598Z,992.54
2018-03-08T03:17:21.969Z,992.51
2018-03-08T03:18:50.151Z,992.49
2018-03-08T03:20:05.242Z,992.57
2018-03-08T03:21:20.433Z,992.54
2018-03-08T03:22:35.157Z,992.58
2018-03-08T03:23:48.748Z,992.65
2018-03-08T03:25:02.912Z,992.67
2018-03-08T03:26:18.136Z,992.67
2018-03-08T03:27:32.807Z,992.66
2018-03-08T03:28:47.208Z,992.64
2018-03-08T03:30:01.838Z,992.67
2018-03-08T03:31:16.427Z,992.65
2018-03-08T03:32:31.387Z,992.6
2018-03-08T03:33:45.522Z,992.62
2018-03-08T03:34:59.935Z,992.58
2018-03-08T03:36:15.185Z,992.54
2018-03-08T03:37:29.578Z,992.54
2018-03-08T03:38:43.924Z,992.54
2018-03-08T03:39:58.568Z,992.5
2018-03-08T03:41:13.028Z,992.56
2018-03-08T03:42:26.912Z,992.56
2018-03-08T03:43:41.056Z,992.58
2018-03-08T03:44:54.901Z,992.58
2018-03-08T03:46:09.115Z,992.54
2018-03-08T03:47:24.096Z,992.52
2018-03-08T03:48:38.209Z,992.62
2018-03-08T03:49:52.855Z,992.59
2018-03-08T03:51:07.560Z,992.55
2018-03-08T03:52:22.482Z,992.55
2018-03-08T03:53:37.121Z,992.57
2018-03-08T03:54:51.588Z,992.63
2018-03-08T03:56:05.972Z,992.62
2018-03-08T03:57:20.322Z,992.67
2018-03-08T03:58:35.175Z,992.61
2018-03-08T03:59:49.524Z,992.61
2018-03-08T04:01:04.216Z,992.63
2018-03-08T04:02:18.080Z,992.64
2018-03-08T04:03:32.492Z,992.66
2018-03-08T04:04:47.379Z,992.62
2018-03-08T04:06:01.518Z,992.62
2018-03-08T04:07:16.106Z,992.59
2018-03-08T04:08:30.500Z,992.55
2018-03-08T04:09:44.942Z,992.55
2018-03-08T04:10:59.599Z,992.56
2018-03-08T04:12:14.531Z,992.54
2018-03-08T04:13:28.731Z,992.55
2018-03-08T04:14:43.906Z,992.62
2018-03-08T04:15:58.570Z,992.63
2018-03-08T04:17:13.135Z,992.64
2018-03-08T04:18:27.783Z,992.62
2018-03-08T04:19:42.163Z,992.63
2018-03-08T04:20:57.287Z,992.63
2018-03-08T04:22:11.870Z,992.63
2018-03-08T04:23:26.294Z,992.65
2018-03-08T04:24:40.945Z,992.67
2018-03-08T04:25:55.609Z,992.73
2018-03-08T04:27:09.990Z,992.66
2018-03-08T04:28:24.655Z,992.63
2018-03-08T04:29:39.572Z,992.69
2018-03-08T04:30:53.958Z,992.72
2018-03-08T04:32:08.332Z,992.73
2018-03-08T04:33:23.332Z,992.76
2018-03-08T04:34:37.979Z,992.74
2018-03-08T04:35:52.117Z,992.78
2018-03-08T04:37:06.011Z,992.79
2018-03-08T04:38:20.204Z,992.79
2018-03-08T04:39:34.333Z,992.82
2018-03-08T04:40:48.524Z,992.87
2018-03-08T04:42:02.656Z,992.92
2018-03-08T04:43:16.643Z,992.95
2018-03-08T04:44:30.546Z,992.9
2018-03-08T04:45:44.702Z,992.98
2018-03-08T04:46:59.665Z,992.97
2018-03-08T04:48:14.376Z,992.97
2018-03-08T04:49:28.814Z,992.98
2018-03-08T04:50:43.737Z,993.09
2018-03-08T04:51:58.431Z,993.1
2018-03-08T04:53:13.441Z,993.13
2018-03-08T04:54:28.112Z,993.07
2018-03-08T04:55:42.221Z,993.11
2018-03-08T04:56:57.394Z,993.1
2018-03-08T04:58:12.111Z,993.14
2018-03-08T04:59:27.073Z,993.18
2018-03-08T05:00:41.673Z,993.18
2018-03-08T05:01:55.558Z,993.25
2018-03-08T05:03:13.010Z,993.21
2018-03-08T05:04:27.446Z,993.27
2018-03-08T05:05:42.124Z,993.31
2018-03-08T05:06:55.988Z,993.33
2018-03-08T05:08:10.092Z,993.27
2018-03-08T05:09:24.582Z,993.33
2018-03-08T05:10:38.688Z,993.34
2018-03-08T05:11:53.370Z,993.37
2018-03-08T05:13:08.300Z,993.36
2018-03-08T05:14:22.629Z,993.32
2018-03-08T05:15:36.761Z,993.36
2018-03-08T05:16:51.156Z,993.35
2018-03-08T05:18:06.125Z,993.35
2018-03-08T05:19:20.921Z,993.33
2018-03-08T05:20:35.328Z,993.31
2018-03-08T05:21:50.275Z,993.41
2018-03-08T05:23:04.414Z,993.45
2018-03-08T05:24:18.874Z,993.46
2018-03-08T05:25:32.762Z,993.44
2018-03-08T05:26:47.442Z,993.45
2018-03-08T05:28:02.083Z,993.49
2018-03-08T05:29:16.451Z,993.5
2018-03-08T05:30:31.151Z,993.58
2018-03-08T05:31:45.749Z,993.51
2018-03-08T05:33:00.159Z,993.54
2018-03-08T05:34:14.296Z,993.58
2018-03-08T05:35:28.951Z,993.63
2018-03-08T05:36:43.804Z,993.63
2018-03-08T05:37:58.698Z,993.65
2018-03-08T05:39:13.110Z,993.68
2018-03-08T05:40:28.012Z,993.65
2018-03-08T05:41:43.207Z,993.66
2018-03-08T05:42:58.217Z,993.67
2018-03-08T05:44:12.902Z,993.7
2018-03-08T05:45:28.275Z,993.76
2018-03-08T05:46:43.336Z,993.78
2018-03-08T05:47:58.013Z,993.75
2018-03-08T05:49:13.254Z,993.77
2018-03-08T05:50:27.596Z,993.76
2018-03-08T05:51:42.027Z,993.82
2018-03-08T05:52:55.922Z,993.78
2018-03-08T05:54:10.089Z,993.85
2018-03-08T05:55:25.134Z,993.83
2018-03-08T05:56:39.036Z,993.84
2018-03-08T05:57:53.980Z,993.87
2018-03-08T05:59:08.907Z,993.86
2018-03-08T06:00:23.110Z,993.9
2018-03-08T06:01:37.500Z,993.86
2018-03-08T06:02:51.872Z,993.9
2018-03-08T06:04:06.616Z,993.88
2018-03-08T06:05:21.185Z,993.91
2018-03-08T06:06:35.361Z,993.94
2018-03-08T06:07:49.801Z,993.91
2018-03-08T06:09:03.939Z,993.96
2018-03-08T06:10:18.899Z,993.95
2018-03-08T06:11:32.833Z,993.96
2018-03-08T06:12:47.262Z,993.93
2018-03-08T06:14:02.251Z,993.97
2018-03-08T06:15:16.405Z,993.96
2018-03-08T06:16:31.020Z,993.99
2018-03-08T06:17:45.362Z,994.01
2018-03-08T06:19:00.041Z,994.05
2018-03-08T06:20:14.782Z,993.97
2018-03-08T06:21:30.001Z,993.99
2018-03-08T06:22:44.986Z,994.06
2018-03-08T06:23:59.925Z,994.07
2018-03-08T06:25:14.613Z,994.03
2018-03-08T06:26:29.777Z,994.08
2018-03-08T06:27:43.927Z,994.04
2018-03-08T06:28:57.806Z,994.03
2018-03-08T06:30:13.028Z,994.07
2018-03-08T06:31:27.568Z,994.11
2018-03-08T06:32:42.599Z,994.14
2018-03-08T06:33:57.823Z,994.08
2018-03-08T06:35:12.207Z,994.05
2018-03-08T06:36:36.598Z,994.1
2018-03-08T06:37:51.461Z,994.01
2018-03-08T06:39:05.908Z,994.06
2018-03-08T06:40:20.557Z,994.04
2018-03-08T06:41:35.237Z,994.05
2018-03-08T06:42:49.256Z,994.09
2018-03-08T06:44:04.755Z,994.16
2018-03-08T06:45:18.942Z,994.15
2018-03-08T06:46:33.724Z,994.14
2018-03-08T06:47:48.837Z,994.12
2018-03-08T06:49:02.992Z,994.12
2018-03-08T06:50:17.463Z,994.13
2018-03-08T06:51:31.929Z,994.21
2018-03-08T06:52:46.617Z,994.21
2018-03-08T06:54:01.581Z,994.22
2018-03-08T06:55:15.178Z,994.29
2018-03-08T06:56:29.854Z,994.27
2018-03-08T06:57:44.023Z,994.31
2018-03-08T06:58:58.826Z,994.29
2018-03-08T07:00:13.532Z,994.29
2018-03-08T07:01:28.223Z,994.34
2018-03-08T07:02:43.150Z,994.33
2018-03-08T07:03:58.256Z,994.34
2018-03-08T07:05:13.394Z,994.33
2018-03-08T07:06:27.794Z,994.35
2018-03-08T07:07:42.975Z,994.29
2018-03-08T07:08:59.661Z,994.33
2018-03-08T07:10:13.779Z,994.33
2018-03-08T07:11:27.993Z,994.33
2018-03-08T07:12:42.807Z,994.34
2018-03-08T07:13:57.641Z,994.38
2018-03-08T07:15:12.621Z,994.39
2018-03-08T07:16:27.281Z,994.36
2018-03-08T07:17:42.056Z,994.36
2018-03-08T07:18:57.214Z,994.33
2018-03-08T07:20:11.635Z,994.34
2018-03-08T07:21:26.848Z,994.38
2018-03-08T07:22:41.206Z,994.36
2018-03-08T07:23:56.630Z,994.37
2018-03-08T07:25:11.029Z,994.31
2018-03-08T07:26:25.690Z,994.39
2018-03-08T07:27:40.475Z,994.3
2018-03-08T07:28:55.421Z,994.28
2018-03-08T07:30:09.870Z,994.34
2018-03-08T07:31:24.831Z,994.39
2018-03-08T07:32:38.690Z,994.35
2018-03-08T07:33:53.907Z,994.3
2018-03-08T07:35:08.607Z,994.27
2018-03-08T07:36:23.145Z,994.3
2018-03-08T07:37:37.572Z,994.27
2018-03-08T07:38:52.497Z,994.33
2018-03-08T07:40:06.946Z,994.33
2018-03-08T07:41:22.213Z,994.28
2018-03-08T07:42:37.619Z,994.31
2018-03-08T07:43:52.387Z,994.33
2018-03-08T07:45:06.769Z,994.32
2018-03-08T07:46:21.732Z,994.31
2018-03-08T07:47:36.411Z,994.29
2018-03-08T07:48:51.287Z,994.3
2018-03-08T07:50:05.716Z,994.28
2018-03-08T07:51:20.525Z,994.32
2018-03-08T07:52:35.467Z,994.3
2018-03-08T07:53:50.256Z,994.33
2018-03-08T07:55:05.418Z,994.27
2018-03-08T07:56:20.990Z,994.32
2018-03-08T07:57:35.135Z,994.28
2018-03-08T07:58:49.907Z,994.32
2018-03-08T08:00:04.583Z,994.29
2018-03-08T08:01:19.502Z,994.25
2018-03-08T08:02:34.165Z,994.26
2018-03-08T08:03:49.118Z,994.24
2018-03-08T08:05:04.330Z,994.25
2018-03-08T08:06:17.914Z,994.24
2018-03-08T08:07:32.000Z,994.14
2018-03-08T08:08:45.957Z,994.18
2018-03-08T08:10:00.882Z,994.18
2018-03-08T08:11:16.099Z,994.21
2018-03-08T08:12:30.512Z,994.21
2018-03-08T08:13:46.496Z,994.14
2018-03-08T08:15:01.198Z,994.13
2018-03-08T08:16:16.401Z,994.15
2018-03-08T08:17:31.743Z,994.13
2018-03-08T08:18:45.742Z,994.22
2018-03-08T08:20:01.079Z,994.21
2018-03-08T08:21:15.582Z,994.2
2018-03-08T08:22:30.141Z,994.17
2018-03-08T08:23:45.248Z,994.16
2018-03-08T08:45:51.681Z,994.24
2018-03-08T08:47:13.209Z,994.18
2018-03-08T08:48:27.459Z,994.13
2018-03-08T08:49:42.707Z,994.15
2018-03-08T08:50:57.581Z,994.16
2018-03-08T08:52:12.837Z,994.07
2018-03-08T08:53:27.371Z,994.08
2018-03-08T08:54:42.138Z,994.12
2018-03-08T08:55:56.894Z,994.11
2018-03-08T08:57:11.976Z,994.11
2018-03-08T08:58:26.926Z,994.16
2018-03-08T08:59:41.780Z,994.19
2018-03-08T09:00:56.603Z,994.14
2018-03-08T09:02:10.596Z,994.12
2018-03-08T09:03:25.369Z,994.1
2018-03-08T09:04:40.202Z,994.09
2018-03-08T09:05:55.687Z,994.15
2018-03-08T09:07:09.937Z,994.14
2018-03-08T09:08:23.924Z,994.18
2018-03-08T09:09:39.108Z,994.11
2018-03-08T09:10:54.044Z,994.15
2018-03-08T09:12:08.896Z,994.11
2018-03-08T09:13:23.580Z,994.09
2018-03-08T09:14:38.691Z,994.08
2018-03-08T09:15:54.510Z,994.15
2018-03-08T09:17:09.427Z,994.14
2018-03-08T09:18:24.516Z,994.19
2018-03-08T09:19:40.146Z,994.08
2018-03-08T09:20:55.926Z,994.13
2018-03-08T09:22:10.403Z,994.1
2018-03-08T09:23:24.923Z,994.13
2018-03-08T09:24:39.979Z,994.16
2018-03-08T09:25:54.849Z,994.21
2018-03-08T09:27:10.270Z,994.22
2018-03-08T09:28:25.044Z,994.25
2018-03-08T09:29:39.922Z,994.24
2018-03-08T09:30:55.343Z,994.24
2018-03-08T09:32:10.422Z,994.17
2018-03-08T09:33:24.647Z,994.19
2018-03-08T09:34:39.651Z,994.24
2018-03-08T09:35:54.825Z,994.24
2018-03-08T09:37:09.022Z,994.23
2018-03-08T09:38:24.102Z,994.14
2018-03-08T09:39:38.689Z,994.2
2018-03-08T09:40:54.286Z,994.21
2018-03-08T09:42:08.738Z,994.15
2018-03-08T09:43:23.281Z,994.18
2018-03-08T09:44:38.007Z,994.07
2018-03-08T09:45:52.973Z,994.11
2018-03-08T09:47:07.530Z,994.08
2018-03-08T09:48:22.106Z,994.09
2018-03-08T09:49:36.866Z,994.04
2018-03-08T09:50:51.577Z,994.02
2018-03-08T09:52:28.437Z,993.99
2018-03-08T09:53:43.003Z,994.06
2018-03-08T09:54:57.261Z,994.07
2018-03-08T09:56:12.099Z,994.05
2018-03-08T09:57:26.547Z,993.98
2018-03-08T09:58:41.250Z,994
2018-03-08T09:59:55.934Z,993.99
2018-03-08T10:01:10.732Z,994
2018-03-08T10:02:25.890Z,993.94
2018-03-08T10:03:40.895Z,993.92
2018-03-08T10:04:55.686Z,993.95
2018-03-08T10:06:10.780Z,993.91
2018-03-08T10:07:25.414Z,993.89
2018-03-08T10:08:40.703Z,993.92
2018-03-08T10:09:55.095Z,993.87
2018-03-08T10:11:09.901Z,993.89
2018-03-08T10:12:24.876Z,993.79
2018-03-08T10:13:39.716Z,993.79
2018-03-08T10:14:54.316Z,993.75
2018-03-08T10:16:08.284Z,993.72
2018-03-08T10:17:23.323Z,993.72
2018-03-08T10:18:38.156Z,993.66
2018-03-08T10:19:53.100Z,993.58
2018-03-08T10:21:07.704Z,993.62
2018-03-08T10:22:49.542Z,993.62
2018-03-08T10:24:04.862Z,993.62
2018-03-08T10:25:40.010Z,993.62
2018-03-08T10:26:55.254Z,993.61
2018-03-08T10:28:09.454Z,993.61
2018-03-08T10:29:24.747Z,993.47
2018-03-08T10:30:39.642Z,993.49
2018-03-08T10:31:54.109Z,993.47
2018-03-08T10:33:08.700Z,993.54
2018-03-08T10:34:23.295Z,993.56
2018-03-08T10:35:38.380Z,993.6
2018-03-08T10:36:53.693Z,993.56
2018-03-08T10:38:08.954Z,993.64
2018-03-08T10:41:56.471Z,993.51
2018-03-08T10:43:10.995Z,993.51
2018-03-08T10:44:25.996Z,993.49
2018-03-08T10:45:40.732Z,993.49
2018-03-08T10:46:55.726Z,993.43
2018-03-08T10:48:10.563Z,993.45
2018-03-08T10:49:24.546Z,993.42
2018-03-08T10:50:39.848Z,993.37
2018-03-08T10:51:54.078Z,993.45
2018-03-08T10:53:09.223Z,993.46
2018-03-08T10:54:24.275Z,993.36
2018-03-08T10:55:38.969Z,993.35
2018-03-08T10:56:54.509Z,993.41
2018-03-08T10:58:41.233Z,993.36
2018-03-08T10:59:56.109Z,993.31
2018-03-08T11:01:10.326Z,993.34
2018-03-08T11:02:25.722Z,993.31
2018-03-08T11:03:40.234Z,993.33
2018-03-08T11:04:54.395Z,993.3
2018-03-08T11:06:09.189Z,993.31
2018-03-08T11:07:23.675Z,993.42
2018-03-08T11:08:53.080Z,993.33
2018-03-08T11:10:07.530Z,993.19
2018-03-08T11:11:22.574Z,993.23
2018-03-08T11:12:37.503Z,993.31
2018-03-08T11:13:52.245Z,993.17
2018-03-08T11:15:06.510Z,993.23
2018-03-08T11:16:21.804Z,993.28
2018-03-08T11:17:36.328Z,993.21
2018-03-08T11:18:51.195Z,993.14
2018-03-08T11:20:05.738Z,993.16
2018-03-08T11:21:20.224Z,993.15
2018-03-08T11:22:34.200Z,993.17
2018-03-08T11:23:49.630Z,993.2
2018-03-08T11:25:04.393Z,993.21
2018-03-08T11:26:19.414Z,993.2
2018-03-08T11:27:33.601Z,993.2
2018-03-08T11:28:48.830Z,993.19
2018-03-08T11:30:03.661Z,993.04
2018-03-08T11:31:31.665Z,993.17
2018-03-08T11:32:46.537Z,993.1
2018-03-08T11:34:01.273Z,993.14
2018-03-08T11:35:16.080Z,993.07
2018-03-08T11:36:30.113Z,993.07
2018-03-08T11:37:44.877Z,993.05
2018-03-08T11:39:00.344Z,992.96
2018-03-08T11:40:15.499Z,992.93
2018-03-08T11:41:30.039Z,992.95
2018-03-08T11:42:44.290Z,992.92
2018-03-08T11:44:00.875Z,992.87
2018-03-08T11:45:16.269Z,992.9
2018-03-08T11:46:31.174Z,992.8
2018-03-08T11:47:46.300Z,992.82
2018-03-08T11:49:01.357Z,992.91
2018-03-08T11:50:15.974Z,992.86
2018-03-08T11:51:31.476Z,992.87
2018-03-08T11:52:46.580Z,992.88
2018-03-08T11:54:01.078Z,992.92
2018-03-08T11:55:15.734Z,992.88
2018-03-08T11:56:30.572Z,992.92
2018-03-08T11:57:45.386Z,992.92
2018-03-08T11:59:00.278Z,992.86
2018-03-08T12:00:14.587Z,992.8
2018-03-08T12:01:29.241Z,992.78
2018-03-08T12:02:43.535Z,992.83
2018-03-08T12:03:59.096Z,992.86
2018-03-08T12:05:14.234Z,992.75
2018-03-08T12:06:28.031Z,992.82
2018-03-08T12:07:42.003Z,992.75
2018-03-08T12:08:56.332Z,992.69
2018-03-08T12:10:11.964Z,992.61
2018-03-08T12:11:27.116Z,992.66
2018-03-08T12:12:42.264Z,992.67
2018-03-08T12:13:57.544Z,992.7
2018-03-08T12:15:12.062Z,992.6
2018-03-08T12:16:26.886Z,992.63
2018-03-08T12:17:41.759Z,992.51
2018-03-08T12:18:57.886Z,992.6
2018-03-08T12:20:12.909Z,992.54
2018-03-08T12:21:27.315Z,992.61
2018-03-08T12:22:42.701Z,992.58
2018-03-08T12:23:57.609Z,992.56
2018-03-08T12:25:12.674Z,992.57
2018-03-08T12:26:27.346Z,992.53
2018-03-08T12:27:42.250Z,992.57
2018-03-08T12:28:57.528Z,992.57
2018-03-08T12:30:12.760Z,992.48
2018-03-08T12:31:26.958Z,992.42
2018-03-08T12:32:41.517Z,992.45
2018-03-08T12:33:56.780Z,992.46
2018-03-08T12:35:11.691Z,992.49
2018-03-08T12:36:26.212Z,992.4
2018-03-08T12:37:40.744Z,992.4
2018-03-08T12:38:56.233Z,992.42
2018-03-08T12:40:11.259Z,992.3
2018-03-08T12:41:25.814Z,992.24
2018-03-08T12:42:40.110Z,992.21
2018-03-08T12:43:55.358Z,992.3
2018-03-08T12:45:10.951Z,992.27
2018-03-08T12:46:26.089Z,992.23
2018-03-08T12:47:41.037Z,992.19
2018-03-08T12:48:55.341Z,992.25
2018-03-08T12:50:25.022Z,992.27
2018-03-08T12:51:39.152Z,992.2
2018-03-08T12:52:53.926Z,992.23
2018-03-08T12:54:08.170Z,992.19
2018-03-08T12:55:23.036Z,992.22
2018-03-08T12:56:37.400Z,992.16
2018-03-08T12:57:51.967Z,992.14
2018-03-08T12:59:06.521Z,992.03
2018-03-08T13:00:21.364Z,992.02
2018-03-08T13:01:36.100Z,992.03
2018-03-08T13:02:50.120Z,991.96
2018-03-08T13:04:05.042Z,992.03
2018-03-08T13:05:19.873Z,991.96
2018-03-08T13:06:35.000Z,991.96
2018-03-08T13:07:49.554Z,991.98
2018-03-08T13:09:05.100Z,991.94
2018-03-08T13:10:20.515Z,991.9
2018-03-08T13:11:35.873Z,991.92
2018-03-08T13:12:50.277Z,991.89
2018-03-08T13:14:05.123Z,991.85
2018-03-08T13:15:20.148Z,991.88
2018-03-08T13:16:35.681Z,991.79
2018-03-08T13:17:50.803Z,991.8
2018-03-08T13:19:05.587Z,991.73
2018-03-08T13:20:20.183Z,991.69
2018-03-08T13:21:35.331Z,991.62
2018-03-08T13:22:49.860Z,991.66
2018-03-08T13:24:05.020Z,991.63
2018-03-08T13:25:20.557Z,991.64
2018-03-08T13:26:35.853Z,991.65
2018-03-08T13:27:50.454Z,991.57
2018-03-08T13:29:05.850Z,991.48
2018-03-08T13:30:21.252Z,991.53
2018-03-08T13:31:36.130Z,991.5
2018-03-08T13:32:50.859Z,991.37
2018-03-08T13:34:05.805Z,991.44
2018-03-08T13:35:21.365Z,991.46
2018-03-08T13:36:36.928Z,991.44
2018-03-08T13:37:51.533Z,991.38
2018-03-08T13:39:06.235Z,991.42
2018-03-08T13:40:21.011Z,991.47
2018-03-08T13:41:36.221Z,991.46
2018-03-08T13:42:51.526Z,991.27
2018-03-08T13:44:06.691Z,991.37
2018-03-08T13:45:21.483Z,991.46
2018-03-08T13:46:36.145Z,991.42
2018-03-08T13:47:51.049Z,991.45
2018-03-08T13:49:06.482Z,991.43
2018-03-08T13:50:21.584Z,991.39
2018-03-08T13:51:36.701Z,991.48
2018-03-08T13:52:50.700Z,991.46
2018-03-08T13:54:05.678Z,991.49
2018-03-08T13:55:20.812Z,991.37
2018-03-08T13:56:36.308Z,991.3
2018-03-08T13:57:51.420Z,991.29
2018-03-08T13:59:06.140Z,991.33
2018-03-08T14:00:21.778Z,991.33
2018-03-08T14:01:36.986Z,991.34
2018-03-08T14:02:52.156Z,991.33
2018-03-08T14:04:07.044Z,991.29
2018-03-08T14:05:22.257Z,991.22
2018-03-08T14:06:37.188Z,991.16
2018-03-08T14:07:53.085Z,991.21
2018-03-08T14:09:07.939Z,991.28
2018-03-08T14:10:22.848Z,991.18
2018-03-08T14:11:38.095Z,991.2
2018-03-08T14:12:53.121Z,991.1
2018-03-08T14:14:07.746Z,991.05
2018-03-08T14:15:22.940Z,991.12
2018-03-08T14:16:38.259Z,991.04
2018-03-08T14:17:53.029Z,991.02
2018-03-08T14:19:07.824Z,990.89
2018-03-08T14:20:22.441Z,990.92
2018-03-08T14:21:38.095Z,990.93
2018-03-08T14:22:53.219Z,990.92
2018-03-08T14:24:07.546Z,990.96
2018-03-08T14:25:22.644Z,990.95
2018-03-08T14:26:38.231Z,990.87
2018-03-08T14:27:53.783Z,990.9
2018-03-08T14:29:09.376Z,990.97
2018-03-08T14:30:24.078Z,990.99
2018-03-08T14:31:38.929Z,990.89
2018-03-08T14:32:54.412Z,990.96
2018-03-08T14:34:09.261Z,990.9
2018-03-08T14:35:24.604Z,990.87
2018-03-08T14:36:39.404Z,990.83
2018-03-08T14:37:54.494Z,990.79
2018-03-08T14:39:09.406Z,990.84
2018-03-08T14:40:24.297Z,990.82
2018-03-08T14:41:38.950Z,990.8
2018-03-08T14:42:53.592Z,990.76
2018-03-08T14:44:08.033Z,990.69
2018-03-08T14:45:22.440Z,990.7
2018-03-08T14:46:58.256Z,990.74
2018-03-08T14:48:13.092Z,990.73
2018-03-08T14:49:27.571Z,990.69
2018-03-08T14:50:41.810Z,990.7
2018-03-08T14:51:56.361Z,990.71
2018-03-08T14:53:11.502Z,990.68
2018-03-08T14:54:27.297Z,990.6
2018-03-08T14:55:42.434Z,990.56
2018-03-08T14:56:56.962Z,990.54
2018-03-08T14:58:11.452Z,990.51
2018-03-08T14:59:26.317Z,990.47
2018-03-08T15:00:41.697Z,990.5
2018-03-08T15:01:56.242Z,990.47
2018-03-08T15:03:11.308Z,990.46
2018-03-08T15:04:25.901Z,990.46
2018-03-08T15:05:55.421Z,990.45
2018-03-08T15:07:10.103Z,990.34
2018-03-08T15:08:24.873Z,990.39
2018-03-08T15:09:39.920Z,990.41
2018-03-08T15:10:54.418Z,990.44
2018-03-08T15:12:09.768Z,990.38
2018-03-08T15:13:24.937Z,990.35
2018-03-08T15:14:40.266Z,990.39
2018-03-08T15:15:55.506Z,990.45
2018-03-08T15:17:10.010Z,990.36
2018-03-08T15:18:24.677Z,990.34
2018-03-08T15:19:39.821Z,990.3
2018-03-08T15:20:54.204Z,990.37
2018-03-08T15:22:08.867Z,990.32
2018-03-08T15:23:23.676Z,990.32
2018-03-08T15:24:38.572Z,990.36
2018-03-08T15:25:53.592Z,990.27
2018-03-08T15:27:08.579Z,990.29
2018-03-08T15:28:23.491Z,990.27
2018-03-08T15:29:38.285Z,990.21
2018-03-08T15:30:55.398Z,990.24
2018-03-08T15:32:10.195Z,990.17
2018-03-08T15:33:24.449Z,990.17
2018-03-08T15:34:39.414Z,990.15
2018-03-08T15:35:54.220Z,990.16
2018-03-08T15:37:08.706Z,990.15
2018-03-08T15:38:23.556Z,990.13
2018-03-08T15:39:39.074Z,990.16
2018-03-08T15:40:54.728Z,990.1
2018-03-08T15:42:09.255Z,990.09
2018-03-08T15:43:24.527Z,990.05
2018-03-08T15:44:39.076Z,990.02
2018-03-08T15:45:53.885Z,989.97
2018-03-08T15:47:08.370Z,989.96
2018-03-08T15:52:30.411Z,989.68
2018-03-08T15:53:44.746Z,989.66
2018-03-08T15:54:59.801Z,989.62
2018-03-08T15:56:15.509Z,989.64
2018-03-08T15:57:30.178Z,989.66
2018-03-08T15:58:45.952Z,989.69
2018-03-08T16:00:00.884Z,989.65
2018-03-08T16:02:45.869Z,989.64
2018-03-08T16:04:00.676Z,989.61
2018-03-08T16:05:14.769Z,989.61
2018-03-08T16:06:29.345Z,989.53
2018-03-08T16:07:45.073Z,989.45
2018-03-08T16:08:59.952Z,989.47